createdAt,value
2018-07-05T00:02:02.595Z,99.90
2018-07-05T00:04:35.819Z,99.90
2018-07-05T00:07:08.984Z,99.90
2018-07-05T00:09:42.380Z,99.90
2018-07-05T00:12:15.611Z,99.90
2018-07-05T00:14:48.888Z,99.90
2018-07-05T00:17:22.247Z,99.90
2018-07-05T00:22:23.038Z,99.90
2018-07-05T00:24:56.300Z,99.90
2018-07-05T00:27:29.731Z,99.90
2018-07-05T00:30:03.088Z,99.90
2018-07-05T00:32:36.443Z,99.90
2018-07-05T00:35:09.717Z,99.90
2018-07-05T00:37:42.952Z,99.90
2018-07-05T00:40:16.347Z,99.90
2018-07-05T00:42:49.660Z,99.90
2018-07-05T00:45:23.079Z,99.90
2018-07-05T00:47:56.368Z,99.90
2018-07-05T00:50:29.787Z,99.90
2018-07-05T00:53:02.991Z,99.90
2018-07-05T00:55:36.215Z,99.90
2018-07-05T00:58:09.451Z,99.90
2018-07-05T01:00:42.622Z,99.90
2018-07-05T01:03:15.886Z,99.90
2018-07-05T01:05:49.109Z,99.90
2018-07-05T01:08:22.427Z,99.90
2018-07-05T01:10:55.678Z,99.90
2018-07-05T01:13:28.947Z,99.90
2018-07-05T01:16:02.218Z,99.90
2018-07-05T01:18:35.478Z,99.90
2018-07-05T01:21:08.652Z,99.90
2018-07-05T01:23:41.987Z,99.90
2018-07-05T01:26:15.207Z,99.90
2018-07-05T01:28:48.467Z,99.90
2018-07-05T01:31:21.851Z,99.90
2018-07-05T01:33:55.102Z,99.90
2018-07-05T01:36:28.447Z,99.90
2018-07-05T01:39:01.718Z,99.90
2018-07-05T01:44:02.387Z,99.90
2018-07-05T01:46:35.635Z,99.90
2018-07-05T01:49:08.851Z,99.90
2018-07-05T01:51:42.234Z,99.90
2018-07-05T01:54:15.627Z,99.90
2018-07-05T01:59:16.464Z,99.90
2018-07-05T02:01:49.847Z,99.90
2018-07-05T02:04:23.228Z,99.90
2018-07-05T02:06:56.513Z,99.90
2018-07-05T02:09:29.863Z,99.90
2018-07-05T02:12:03.168Z,99.90
2018-07-05T02:14:36.480Z,99.90
2018-07-05T02:17:09.875Z,99.90
2018-07-05T02:19:43.175Z,99.90
2018-07-05T02:22:16.507Z,99.90
2018-07-05T02:24:49.702Z,99.90
2018-07-05T02:27:22.935Z,99.90
2018-07-05T02:29:56.183Z,99.90
2018-07-05T02:32:29.563Z,99.90
2018-07-05T02:35:02.793Z,99.90
2018-07-05T02:37:41.611Z,99.90
2018-07-05T02:40:14.951Z,99.90
2018-07-05T02:42:48.187Z,99.90
2018-07-05T02:45:21.466Z,99.90
2018-07-05T02:47:54.740Z,99.90
2018-07-05T02:50:28.035Z,99.90
2018-07-05T02:53:01.248Z,99.90
2018-07-05T02:55:34.468Z,99.90
2018-07-05T02:58:07.853Z,99.90
2018-07-05T03:00:44.311Z,99.90
2018-07-05T03:03:17.696Z,99.90
2018-07-05T03:05:51.124Z,99.90
2018-07-05T03:08:24.344Z,99.90
2018-07-05T03:10:57.568Z,99.90
2018-07-05T03:13:30.775Z,99.90
2018-07-05T03:16:03.974Z,99.90
2018-07-05T03:18:37.332Z,99.90
2018-07-05T03:21:10.712Z,99.90
2018-07-05T03:23:43.896Z,99.90
2018-07-05T03:26:17.237Z,99.90
2018-07-05T03:28:50.514Z,99.90
2018-07-05T03:31:23.843Z,99.90
2018-07-05T03:33:57.103Z,99.90
2018-07-05T03:36:30.319Z,99.90
2018-07-05T03:39:03.849Z,99.90
2018-07-05T03:41:37.031Z,99.90
2018-07-05T03:44:10.315Z,99.90
2018-07-05T03:46:43.560Z,99.90
2018-07-05T03:49:16.799Z,99.90
2018-07-05T03:51:50.066Z,99.90
2018-07-05T03:54:23.307Z,99.90
2018-07-05T03:56:56.579Z,99.90
2018-07-05T03:59:29.815Z,99.90
2018-07-05T04:02:03.039Z,99.90
2018-07-05T04:04:36.379Z,99.90
2018-07-05T04:09:37.580Z,99.90
2018-07-05T04:12:10.799Z,99.90
2018-07-05T04:14:44.034Z,99.90
2018-07-05T04:17:17.307Z,99.90
2018-07-05T04:19:51.629Z,99.90
2018-07-05T04:22:24.968Z,99.90
2018-07-05T04:24:58.355Z,99.90
2018-07-05T04:27:31.697Z,99.90
2018-07-05T04:30:04.986Z,99.90
2018-07-05T04:32:38.303Z,99.90
2018-07-05T04:35:11.541Z,99.90
2018-07-05T04:37:44.787Z,99.90
2018-07-05T04:40:17.971Z,99.90
2018-07-05T04:42:51.167Z,99.90
2018-07-05T04:45:24.375Z,99.90
2018-07-05T04:47:57.643Z,99.90
2018-07-05T04:50:31.135Z,99.90
2018-07-05T04:53:04.511Z,99.90
2018-07-05T04:55:37.743Z,99.90
2018-07-05T04:58:11.039Z,99.90
2018-07-05T05:00:44.379Z,99.90
2018-07-05T05:03:17.611Z,99.90
2018-07-05T05:05:50.864Z,99.90
2018-07-05T05:08:24.195Z,99.90
2018-07-05T05:10:57.591Z,99.90
2018-07-05T05:13:30.875Z,99.90
2018-07-05T05:16:04.032Z,99.90
2018-07-05T05:18:37.315Z,99.90
2018-07-05T05:21:10.739Z,99.90
2018-07-05T05:23:44.056Z,99.90
2018-07-05T05:26:17.415Z,99.90
2018-07-05T05:28:50.654Z,99.90
2018-07-05T05:31:23.926Z,99.90
2018-07-05T05:33:57.383Z,99.90
2018-07-05T05:36:30.755Z,99.90
2018-07-05T05:39:04.839Z,99.90
2018-07-05T05:41:38.131Z,99.90
2018-07-05T05:44:11.400Z,99.90
2018-07-05T05:46:44.768Z,99.90
2018-07-05T05:49:18.004Z,99.90
2018-07-05T05:51:51.251Z,99.90
2018-07-05T05:56:52.009Z,99.90
2018-07-05T05:59:25.243Z,99.90
2018-07-05T06:01:58.440Z,99.90
2018-07-05T06:04:31.698Z,99.90
2018-07-05T06:07:04.899Z,99.90
2018-07-05T06:09:38.139Z,99.90
2018-07-05T06:12:11.455Z,99.90
2018-07-05T06:14:44.639Z,99.90
2018-07-05T06:17:17.963Z,99.90
2018-07-05T06:19:51.297Z,99.90
2018-07-05T06:22:24.676Z,99.90
2018-07-05T06:24:57.878Z,99.90
2018-07-05T06:27:31.332Z,99.90
2018-07-05T06:30:04.603Z,99.90
2018-07-05T06:32:37.888Z,99.90
2018-07-05T06:35:11.316Z,99.90
2018-07-05T06:37:44.591Z,99.90
2018-07-05T06:40:17.951Z,99.90
2018-07-05T06:45:18.733Z,99.90
2018-07-05T06:47:52.014Z,99.90
2018-07-05T06:50:25.271Z,99.90
2018-07-05T06:52:58.645Z,99.90
2018-07-05T06:55:31.924Z,99.90
2018-07-05T06:58:05.115Z,99.90
2018-07-05T07:00:38.327Z,99.90
2018-07-05T07:03:11.636Z,99.90
2018-07-05T07:05:44.911Z,99.90
2018-07-05T07:08:18.115Z,99.90
2018-07-05T07:10:51.347Z,99.90
2018-07-05T07:13:24.767Z,99.90
2018-07-05T07:15:58.030Z,99.90
2018-07-05T07:18:31.404Z,99.90
2018-07-05T07:21:04.637Z,99.90
2018-07-05T07:23:37.787Z,99.90
2018-07-05T07:26:11.015Z,99.90
2018-07-05T07:28:44.192Z,99.90
2018-07-05T07:31:17.528Z,99.90
2018-07-05T07:33:50.951Z,99.90
2018-07-05T07:36:24.131Z,99.90
2018-07-05T07:38:57.404Z,99.90
2018-07-05T07:41:30.734Z,99.90
2018-07-05T07:43:57.864Z,99.90
2018-07-05T07:46:25.001Z,99.90
2018-07-05T07:48:52.279Z,99.90
2018-07-05T07:51:19.394Z,99.90
2018-07-05T07:53:46.479Z,99.90
2018-07-05T07:56:13.583Z,99.90
2018-07-05T07:58:40.671Z,99.90
2018-07-05T08:01:07.815Z,99.90
2018-07-05T08:03:34.907Z,99.90
2018-07-05T08:06:02.040Z,99.90
2018-07-05T08:08:29.128Z,99.90
2018-07-05T08:10:56.253Z,99.90
2018-07-05T08:13:23.344Z,99.90
2018-07-05T08:15:50.675Z,99.90
2018-07-05T08:18:17.763Z,99.90
2018-07-05T08:20:44.868Z,99.90
2018-07-05T08:23:11.958Z,99.90
2018-07-05T08:25:39.067Z,99.90
2018-07-05T08:28:06.168Z,99.90
2018-07-05T08:30:33.611Z,99.90
2018-07-05T08:35:28.060Z,99.90
2018-07-05T08:37:55.296Z,99.90
2018-07-05T08:40:22.586Z,99.90
2018-07-05T08:42:49.851Z,99.90
2018-07-05T08:45:17.447Z,99.90
2018-07-05T08:47:44.792Z,99.90
2018-07-05T08:50:11.900Z,99.90
2018-07-05T08:52:39.478Z,99.90
2018-07-05T08:55:06.579Z,99.90
2018-07-05T08:57:33.671Z,99.90
2018-07-05T09:00:00.763Z,99.90
2018-07-05T09:02:27.870Z,99.90
2018-07-05T09:04:54.957Z,99.90
2018-07-05T09:07:22.064Z,99.90
2018-07-05T09:09:49.158Z,99.90
2018-07-05T09:12:16.268Z,99.90
2018-07-05T09:14:43.364Z,99.90
2018-07-05T09:17:10.471Z,99.90
2018-07-05T09:19:37.560Z,99.90
2018-07-05T09:22:04.664Z,99.90
2018-07-05T09:24:31.755Z,99.90
2018-07-05T09:26:58.863Z,99.90
2018-07-05T09:31:53.307Z,99.20
2018-07-05T09:34:20.392Z,99.60
2018-07-05T09:36:47.495Z,99.40
2018-07-05T09:39:14.588Z,97.70
2018-07-05T09:41:41.687Z,98.50
2018-07-05T09:44:08.778Z,98.90
2018-07-05T09:46:35.882Z,98.80
2018-07-05T09:49:02.975Z,98.70
2018-07-05T09:51:30.088Z,98.40
2018-07-05T09:53:57.180Z,98.20
2018-07-05T09:56:24.287Z,97.90
2018-07-05T09:58:51.744Z,99.00
2018-07-05T10:01:18.888Z,98.60
2018-07-05T10:03:46.014Z,97.10
2018-07-05T10:06:13.119Z,97.70
2018-07-05T10:08:40.212Z,96.90
2018-07-05T10:11:07.318Z,96.50
2018-07-05T10:13:34.623Z,96.00
2018-07-05T10:16:01.557Z,95.90
2018-07-05T10:18:28.656Z,95.80
2018-07-05T10:20:55.763Z,95.60
2018-07-05T10:23:22.853Z,95.80
2018-07-05T10:25:49.961Z,96.70
2018-07-05T10:28:17.047Z,95.90
2018-07-05T10:30:50.311Z,97.40
2018-07-05T10:33:23.563Z,95.10
2018-07-05T10:35:50.715Z,95.20
2018-07-05T10:38:17.803Z,94.60
2018-07-05T10:40:51.079Z,95.10
2018-07-05T10:43:24.323Z,94.10
2018-07-05T10:45:57.715Z,94.50
2018-07-05T10:48:31.029Z,93.20
2018-07-05T10:51:04.344Z,94.90
2018-07-05T10:53:37.535Z,95.50
2018-07-05T10:56:10.788Z,94.00
2018-07-05T10:58:44.171Z,93.30
2018-07-05T11:01:17.384Z,93.00
2018-07-05T11:03:50.763Z,93.00
2018-07-05T11:06:24.116Z,90.90
2018-07-05T11:08:57.456Z,91.90
2018-07-05T11:11:30.719Z,91.80
2018-07-05T11:14:03.996Z,92.10
2018-07-05T11:16:37.340Z,91.10
2018-07-05T11:19:10.700Z,91.50
2018-07-05T11:21:43.936Z,91.20
2018-07-05T11:24:17.159Z,88.90
2018-07-05T11:26:50.521Z,88.80
2018-07-05T11:29:23.843Z,88.40
2018-07-05T11:31:57.222Z,90.70
2018-07-05T11:34:30.575Z,92.70
2018-07-05T11:37:03.952Z,94.30
2018-07-05T11:39:37.285Z,93.10
2018-07-05T11:42:10.620Z,92.00
2018-07-05T11:44:43.911Z,92.30
2018-07-05T11:47:17.207Z,90.20
2018-07-05T11:49:50.619Z,90.00
2018-07-05T11:52:23.855Z,89.20
2018-07-05T11:54:57.134Z,90.60
2018-07-05T11:57:30.492Z,91.60
2018-07-05T12:00:03.852Z,91.40
2018-07-05T12:02:37.156Z,88.40
2018-07-05T12:05:10.495Z,89.90
2018-07-05T12:07:43.681Z,89.80
2018-07-05T12:10:17.056Z,90.10
2018-07-05T12:12:50.296Z,90.00
2018-07-05T12:15:23.731Z,88.40
2018-07-05T12:17:57.171Z,87.20
2018-07-05T12:20:30.543Z,86.60
2018-07-05T12:23:03.708Z,86.60
2018-07-05T12:25:37.100Z,82.70
2018-07-05T12:28:10.282Z,80.40
2018-07-05T12:30:43.507Z,82.50
2018-07-05T12:33:16.843Z,83.20
2018-07-05T12:35:50.305Z,78.90
2018-07-05T12:38:23.504Z,80.80
2018-07-05T12:40:56.748Z,81.20
2018-07-05T12:43:29.982Z,80.40
2018-07-05T12:46:03.387Z,80.70
2018-07-05T12:48:36.536Z,83.10
2018-07-05T12:51:09.772Z,82.20
2018-07-05T12:53:43.123Z,80.70
2018-07-05T12:56:16.451Z,84.10
2018-07-05T12:58:49.709Z,83.50
2018-07-05T13:01:22.907Z,85.00
2018-07-05T13:03:56.356Z,84.20
2018-07-05T13:06:29.735Z,82.10
2018-07-05T13:09:04.852Z,82.00
2018-07-05T13:11:38.072Z,80.90
2018-07-05T13:14:11.407Z,79.60
2018-07-05T13:16:44.804Z,78.50
2018-07-05T13:19:18.094Z,79.20
2018-07-05T13:21:51.385Z,80.20
2018-07-05T13:24:24.623Z,79.80
2018-07-05T13:26:57.775Z,81.80
2018-07-05T13:29:31.155Z,80.30
2018-07-05T13:32:04.556Z,83.10
2018-07-05T13:34:37.811Z,86.30
2018-07-05T13:37:11.032Z,87.80
2018-07-05T13:39:44.319Z,90.00
2018-07-05T13:42:17.716Z,91.40
2018-07-05T13:44:50.907Z,93.10
2018-07-05T13:47:24.137Z,94.40
2018-07-05T13:49:57.491Z,95.80
2018-07-05T13:52:30.930Z,97.30
2018-07-05T13:55:04.124Z,98.00
2018-07-05T13:57:37.896Z,98.70
2018-07-05T14:00:11.282Z,99.90
2018-07-05T14:02:44.539Z,99.90
2018-07-05T14:05:17.818Z,99.90
2018-07-05T14:07:51.046Z,99.90
2018-07-05T14:10:24.427Z,99.90
2018-07-05T14:12:57.655Z,99.90
2018-07-05T14:15:30.847Z,99.90
2018-07-05T14:18:04.091Z,99.90
2018-07-05T14:20:37.427Z,99.90
2018-07-05T14:23:10.694Z,99.90
2018-07-05T14:25:43.919Z,99.90
2018-07-05T14:28:17.277Z,99.90
2018-07-05T14:30:50.570Z,99.90
2018-07-05T14:33:23.759Z,99.90
2018-07-05T14:35:57.008Z,99.90
2018-07-05T14:38:30.215Z,99.90
2018-07-05T14:41:03.588Z,99.90
2018-07-05T14:43:36.971Z,99.90
2018-07-05T14:46:10.372Z,99.90
2018-07-05T14:48:43.551Z,99.90
2018-07-05T14:51:16.980Z,99.90
2018-07-05T14:53:50.288Z,99.90
2018-07-05T14:56:23.560Z,99.90
2018-07-05T14:58:56.808Z,99.90
2018-07-05T15:01:30.095Z,99.90
2018-07-05T15:04:03.479Z,99.90
2018-07-05T15:06:36.699Z,99.90
2018-07-05T15:09:10.119Z,99.90
2018-07-05T15:11:43.464Z,99.90
2018-07-05T15:14:16.640Z,99.90
2018-07-05T15:16:49.906Z,99.90
2018-07-05T15:19:23.104Z,99.90
2018-07-05T15:21:56.475Z,99.90
2018-07-05T15:24:29.780Z,99.90
2018-07-05T15:27:03.131Z,99.90
2018-07-05T15:29:36.368Z,99.90
2018-07-05T15:32:09.787Z,99.90
2018-07-05T15:34:43.043Z,99.90
2018-07-05T15:37:16.282Z,99.90
2018-07-05T15:39:49.531Z,99.90
2018-07-05T15:42:22.699Z,99.90
2018-07-05T15:44:55.942Z,99.90
2018-07-05T15:49:56.538Z,99.90
2018-07-05T15:52:29.891Z,99.90
2018-07-05T15:55:03.176Z,99.90
2018-07-05T15:57:36.476Z,99.90
2018-07-05T16:00:09.687Z,99.90
2018-07-05T16:02:42.880Z,99.90
2018-07-05T16:05:16.115Z,99.90
2018-07-05T16:07:49.364Z,99.90
2018-07-05T16:10:22.605Z,99.90
2018-07-05T16:12:55.943Z,99.90
2018-07-05T16:15:29.256Z,99.90
2018-07-05T16:18:02.537Z,99.90
2018-07-05T16:20:35.987Z,99.90
2018-07-05T16:23:09.207Z,99.90
2018-07-05T16:25:42.394Z,99.90
2018-07-05T16:28:15.572Z,99.90
2018-07-05T16:30:48.975Z,99.90
2018-07-05T16:33:22.275Z,99.90
2018-07-05T16:35:55.492Z,99.90
2018-07-05T16:38:28.910Z,99.90
2018-07-05T16:41:02.245Z,99.90
2018-07-05T16:43:35.519Z,99.90
2018-07-05T16:46:08.927Z,99.90
2018-07-05T16:48:42.299Z,99.90
2018-07-05T16:51:15.659Z,99.90
2018-07-05T16:53:49.076Z,99.90
2018-07-05T16:56:22.423Z,99.90
2018-07-05T16:58:56.680Z,99.90
2018-07-05T17:01:30.052Z,99.90
2018-07-05T17:04:03.313Z,99.90
2018-07-05T17:06:36.539Z,99.90
2018-07-05T17:09:09.823Z,99.90
2018-07-05T17:11:43.096Z,99.90
2018-07-05T17:14:16.610Z,99.90
2018-07-05T17:16:49.990Z,99.90
2018-07-05T17:19:23.387Z,99.90
2018-07-05T17:21:56.685Z,99.90
2018-07-05T17:24:29.924Z,99.90
2018-07-05T17:27:03.297Z,99.90
2018-07-05T17:29:36.552Z,99.90
2018-07-05T17:32:09.787Z,99.90
2018-07-05T17:34:43.170Z,99.90
2018-07-05T17:37:16.508Z,99.90
2018-07-05T17:39:49.763Z,99.90
2018-07-05T17:42:23.138Z,99.90
2018-07-05T17:44:56.422Z,99.90
2018-07-05T17:47:29.695Z,99.90
2018-07-05T17:50:02.912Z,99.90
2018-07-05T17:52:36.255Z,99.90
2018-07-05T17:55:09.623Z,99.90
2018-07-05T17:57:42.835Z,99.90
2018-07-05T18:00:16.275Z,99.90
2018-07-05T18:02:49.590Z,99.90
2018-07-05T18:05:23.276Z,99.90
2018-07-05T18:07:56.510Z,99.90
2018-07-05T18:10:29.935Z,99.90
2018-07-05T18:13:03.284Z,99.90
2018-07-05T18:15:36.521Z,99.90
2018-07-05T18:18:09.815Z,99.90
2018-07-05T18:20:43.152Z,99.90
2018-07-05T18:23:16.435Z,99.90
2018-07-05T18:25:49.766Z,99.90
2018-07-05T18:28:23.083Z,99.90
2018-07-05T18:30:56.394Z,99.90
2018-07-05T18:33:29.736Z,99.90
2018-07-05T18:36:02.995Z,99.90
2018-07-05T18:38:36.171Z,99.90
2018-07-05T18:41:09.539Z,99.90
2018-07-05T18:43:42.900Z,99.90
2018-07-05T18:46:16.215Z,99.90
2018-07-05T18:48:49.575Z,99.90
2018-07-05T18:51:22.976Z,99.90
2018-07-05T18:53:56.348Z,99.90
2018-07-05T18:56:29.697Z,99.90
2018-07-05T18:59:03.047Z,99.90
2018-07-05T19:01:36.256Z,99.90
2018-07-05T19:04:09.457Z,99.90
2018-07-05T19:06:42.967Z,99.90
2018-07-05T19:09:16.359Z,99.90
2018-07-05T19:11:49.597Z,99.90
2018-07-05T19:14:22.820Z,99.90
2018-07-05T19:16:56.051Z,99.90
2018-07-05T19:19:29.248Z,99.90
2018-07-05T19:22:02.903Z,99.90
2018-07-05T19:24:36.308Z,99.90
2018-07-05T19:27:09.667Z,99.90
2018-07-05T19:29:42.987Z,99.90
2018-07-05T19:32:16.336Z,99.90
2018-07-05T19:34:49.670Z,99.90
2018-07-05T19:37:22.940Z,99.90
2018-07-05T19:39:56.250Z,99.90
2018-07-05T19:42:29.491Z,99.90
2018-07-05T19:45:02.887Z,99.90
2018-07-05T19:47:36.196Z,99.90
2018-07-05T19:50:09.596Z,99.90
2018-07-05T19:52:42.961Z,99.90
2018-07-05T19:55:16.299Z,99.90
2018-07-05T19:57:49.753Z,99.90
2018-07-05T20:00:23.080Z,99.90
2018-07-05T20:02:56.375Z,99.90
2018-07-05T20:05:29.836Z,99.90
2018-07-05T20:08:03.323Z,99.90
2018-07-05T20:10:36.720Z,99.90
2018-07-05T20:13:10.111Z,99.90
2018-07-05T20:15:43.532Z,99.90
2018-07-05T20:18:16.876Z,99.90
2018-07-05T20:20:50.132Z,99.90
2018-07-05T20:23:23.403Z,99.90
2018-07-05T20:25:56.908Z,99.90
2018-07-05T20:28:30.112Z,99.90
2018-07-05T20:31:03.348Z,99.90
2018-07-05T20:33:36.601Z,99.90
2018-07-05T20:36:09.788Z,99.90
2018-07-05T20:38:43.152Z,99.90
2018-07-05T20:41:17.060Z,99.90
2018-07-05T20:43:50.480Z,99.90
2018-07-05T20:46:23.703Z,99.90
2018-07-05T20:48:57.052Z,99.90
2018-07-05T20:51:30.299Z,99.90
2018-07-05T20:54:03.576Z,99.90
2018-07-05T20:56:36.804Z,99.90
2018-07-05T20:59:10.128Z,99.90
2018-07-05T21:01:43.420Z,99.90
2018-07-05T21:04:16.772Z,99.90
2018-07-05T21:09:17.396Z,99.90
2018-07-05T21:11:50.656Z,99.90
2018-07-05T21:14:23.957Z,99.90
2018-07-05T21:16:57.368Z,99.90
2018-07-05T21:19:30.756Z,99.90
2018-07-05T21:22:03.949Z,99.90
2018-07-05T21:24:37.372Z,99.90
2018-07-05T21:27:10.680Z,99.90
2018-07-05T21:29:44.053Z,99.90
2018-07-05T21:32:17.339Z,99.90
2018-07-05T21:34:50.737Z,99.90
2018-07-05T21:37:23.943Z,99.90
2018-07-05T21:39:57.321Z,99.90
2018-07-05T21:42:30.632Z,99.90
2018-07-05T21:45:04.029Z,99.90
2018-07-05T21:47:37.360Z,99.90
2018-07-05T21:50:10.631Z,99.90
2018-07-05T21:52:43.835Z,99.90
2018-07-05T21:55:17.035Z,99.90
2018-07-05T21:57:50.408Z,99.90
2018-07-05T22:00:23.671Z,99.90
2018-07-05T22:02:57.151Z,99.90
2018-07-05T22:05:30.375Z,99.90
2018-07-05T22:08:03.781Z,99.90
2018-07-05T22:10:37.084Z,99.90
2018-07-05T22:13:10.341Z,99.90
2018-07-05T22:15:43.716Z,99.90
2018-07-05T22:19:20.613Z,99.90
2018-07-05T22:21:59.376Z,99.90
2018-07-05T22:24:38.200Z,99.90
2018-07-05T22:27:17.161Z,99.90
2018-07-05T22:29:56.180Z,99.90
2018-07-05T22:32:29.630Z,99.90
2018-07-05T22:35:02.992Z,99.90
2018-07-05T22:37:36.312Z,99.90
2018-07-05T22:40:09.652Z,99.90
2018-07-05T22:42:42.920Z,99.90
2018-07-05T22:45:16.344Z,99.90
2018-07-05T22:47:49.621Z,99.90
2018-07-05T22:50:22.920Z,99.90
2018-07-05T22:52:56.176Z,99.90
2018-07-05T22:55:29.436Z,99.90
2018-07-05T22:58:02.753Z,99.90
2018-07-05T23:00:36.158Z,99.90
2018-07-05T23:03:09.502Z,99.90
2018-07-05T23:05:42.888Z,99.90
2018-07-05T23:08:16.052Z,99.90
2018-07-05T23:10:49.404Z,99.90
2018-07-05T23:13:22.728Z,99.90
2018-07-05T23:15:56.013Z,99.90
2018-07-05T23:18:29.421Z,99.90
2018-07-05T23:21:02.815Z,99.90
2018-07-05T23:23:36.047Z,99.90
2018-07-05T23:26:09.443Z,99.90
2018-07-05T23:28:42.652Z,99.90
2018-07-05T23:31:15.880Z,99.90
2018-07-05T23:33:49.236Z,99.90
2018-07-05T23:36:22.708Z,99.90
2018-07-05T23:38:55.991Z,99.90
2018-07-05T23:41:29.396Z,99.90
2018-07-05T23:44:02.700Z,99.90
2018-07-05T23:46:35.872Z,99.90
2018-07-05T23:49:09.238Z,99.90
2018-07-05T23:51:42.503Z,99.90
2018-07-05T23:54:15.939Z,99.90
2018-07-05T23:56:49.488Z,99.90
2018-07-05T23:59:22.671Z,99.90
